sensor_id;sensor_type;location;lat;lon;timestamp;P1;durP1;ratioP1;P2;durP2;ratioP2
6862;SDS011;3470;48.738;9.616;2023-06-19T12:05:36;2.20;;;2.00;;
6862;SDS011;3470;48.738;9.616;2023-06-19T12:08:03;1.90;;;1.80;;
6862;SDS011;3470;48.738;9.616;2023-06-19T12:10:29;1.85;;;1.75;;
6862;SDS011;3470;48.738;9.616;2023-06-19T12:12:58;2.13;;;2.03;;
6862;SDS011;3470;48.738;9.616;2023-06-19T16:57:06;4.93;;;3.40;;
6862;SDS011;3470;48.738;9.616;2023-06-19T16:59:32;4.88;;;3.55;;
6862;SDS011;3470;48.738;9.616;2023-06-19T17:01:57;3.45;;;3.15;;
6862;SDS011;3470;48.738;9.616;2023-06-19T17:04:23;3.60;;;3.30;;
6862;SDS011;3470;48.738;9.616;2023-06-19T17:06:48;4.03;;;3.45;;
6862;SDS011;3470;48.738;9.616;2023-06-19T17:09:14;4.70;;;3.35;;
6862;SDS011;3470;48.738;9.616;2023-06-19T17:11:39;4.00;;;3.55;;
6862;SDS011;3470;48.738;9.616;2023-06-19T17:14:05;4.18;;;3.80;;
6862;SDS011;3470;48.738;9.616;2023-06-19T17:16:31;4.70;;;3.53;;
6862;SDS011;3470;48.738;9.616;2023-06-19T17:18:56;3.80;;;3.50;;
6862;SDS011;3470;48.738;9.616;2023-06-19T17:21:22;4.32;;;3.60;;
6862;SDS011;3470;48.738;9.616;2023-06-19T17:23:47;3.67;;;3.22;;
6862;SDS011;3470;48.738;9.616;2023-06-19T17:26:13;3.78;;;3.47;;
6862;SDS011;3470;48.738;9.616;2023-06-19T17:28:38;5.78;;;3.70;;
6862;SDS011;3470;48.738;9.616;2023-06-19T17:31:04;4.70;;;3.55;;
6862;SDS011;3470;48.738;9.616;2023-06-19T17:33:32;4.57;;;3.70;;
6862;SDS011;3470;48.738;9.616;2023-06-19T17:35:58;4.20;;;3.70;;
6862;SDS011;3470;48.738;9.616;2023-06-19T17:38:24;5.25;;;4.10;;
6862;SDS011;3470;48.738;9.616;2023-06-19T17:40:50;4.95;;;4.18;;
6862;SDS011;3470;48.738;9.616;2023-06-19T17:43:16;4.22;;;3.60;;
6862;SDS011;3470;48.738;9.616;2023-06-19T17:45:42;3.65;;;3.33;;
6862;SDS011;3470;48.738;9.616;2023-06-19T17:48:07;4.05;;;3.65;;
6862;SDS011;3470;48.738;9.616;2023-06-19T17:50:33;5.68;;;3.70;;
6862;SDS011;3470;48.738;9.616;2023-06-19T17:52:59;4.47;;;3.67;;
6862;SDS011;3470;48.738;9.616;2023-06-19T17:55:24;3.80;;;3.50;;
6862;SDS011;3470;48.738;9.616;2023-06-19T17:57:50;3.63;;;3.33;;
6862;SDS011;3470;48.738;9.616;2023-06-19T18:00:16;4.90;;;4.00;;
6862;SDS011;3470;48.738;9.616;2023-06-19T18:02:42;3.90;;;3.53;;
6862;SDS011;3470;48.738;9.616;2023-06-19T18:05:07;3.65;;;3.35;;
6862;SDS011;3470;48.738;9.616;2023-06-19T18:07:33;5.07;;;3.55;;
6862;SDS011;3470;48.738;9.616;2023-06-19T18:09:59;6.05;;;3.75;;
6862;SDS011;3470;48.738;9.616;2023-06-19T18:12:24;4.25;;;3.60;;
6862;SDS011;3470;48.738;9.616;2023-06-19T18:14:51;5.03;;;3.95;;
6862;SDS011;3470;48.738;9.616;2023-06-19T18:17:16;4.30;;;3.90;;
6862;SDS011;3470;48.738;9.616;2023-06-19T18:19:42;4.35;;;3.72;;
6862;SDS011;3470;48.738;9.616;2023-06-19T18:22:08;4.35;;;3.60;;
6862;SDS011;3470;48.738;9.616;2023-06-19T18:24:33;4.40;;;4.10;;
6862;SDS011;3470;48.738;9.616;2023-06-19T18:26:59;4.07;;;3.78;;
6862;SDS011;3470;48.738;9.616;2023-06-19T18:29:24;4.30;;;3.90;;
6862;SDS011;3470;48.738;9.616;2023-06-19T18:31:50;4.28;;;3.97;;
6862;SDS011;3470;48.738;9.616;2023-06-19T18:34:16;4.20;;;3.83;;
6862;SDS011;3470;48.738;9.616;2023-06-19T18:36:42;5.18;;;4.25;;
6862;SDS011;3470;48.738;9.616;2023-06-19T18:39:08;5.82;;;4.10;;
6862;SDS011;3470;48.738;9.616;2023-06-19T18:41:33;4.28;;;3.88;;
6862;SDS011;3470;48.738;9.616;2023-06-19T18:43:59;5.90;;;4.13;;
6862;SDS011;3470;48.738;9.616;2023-06-19T18:46:24;4.68;;;3.97;;
6862;SDS011;3470;48.738;9.616;2023-06-19T18:48:50;7.47;;;4.00;;
6862;SDS011;3470;48.738;9.616;2023-06-19T18:51:16;4.65;;;3.80;;
6862;SDS011;3470;48.738;9.616;2023-06-19T18:53:41;5.45;;;4.30;;
6862;SDS011;3470;48.738;9.616;2023-06-19T18:56:07;5.55;;;3.85;;
6862;SDS011;3470;48.738;9.616;2023-06-19T18:58:33;4.53;;;4.13;;
6862;SDS011;3470;48.738;9.616;2023-06-19T19:00:59;5.32;;;4.43;;
6862;SDS011;3470;48.738;9.616;2023-06-19T19:03:25;5.68;;;4.25;;
6862;SDS011;3470;48.738;9.616;2023-06-19T19:05:51;6.82;;;4.53;;
6862;SDS011;3470;48.738;9.616;2023-06-19T19:08:17;5.35;;;4.03;;
6862;SDS011;3470;48.738;9.616;2023-06-19T19:10:42;4.97;;;4.47;;
6862;SDS011;3470;48.738;9.616;2023-06-19T19:13:08;4.78;;;4.38;;
6862;SDS011;3470;48.738;9.616;2023-06-19T19:15:34;5.47;;;4.85;;
6862;SDS011;3470;48.738;9.616;2023-06-19T19:18:00;5.65;;;5.15;;
6862;SDS011;3470;48.738;9.616;2023-06-19T19:20:26;5.45;;;4.95;;
6862;SDS011;3470;48.738;9.616;2023-06-19T19:22:52;4.72;;;4.25;;
6862;SDS011;3470;48.738;9.616;2023-06-19T19:25:18;5.07;;;4.68;;
6862;SDS011;3470;48.738;9.616;2023-06-19T19:27:43;5.30;;;4.82;;
6862;SDS011;3470;48.738;9.616;2023-06-19T19:30:09;6.13;;;5.30;;
6862;SDS011;3470;48.738;9.616;2023-06-19T19:32:35;5.63;;;4.93;;
6862;SDS011;3470;48.738;9.616;2023-06-19T19:35:01;6.32;;;5.20;;
6862;SDS011;3470;48.738;9.616;2023-06-19T19:37:26;5.90;;;5.40;;
6862;SDS011;3470;48.738;9.616;2023-06-19T19:39:57;5.93;;;5.30;;
6862;SDS011;3470;48.738;9.616;2023-06-19T19:42:26;5.45;;;4.95;;
6862;SDS011;3470;48.738;9.616;2023-06-19T19:44:52;6.55;;;5.18;;
6862;SDS011;3470;48.738;9.616;2023-06-19T19:47:18;5.80;;;5.30;;
6862;SDS011;3470;48.738;9.616;2023-06-19T19:49:45;5.63;;;5.13;;
6862;SDS011;3470;48.738;9.616;2023-06-19T19:52:11;5.82;;;5.22;;
6862;SDS011;3470;48.738;9.616;2023-06-19T19:54:37;5.85;;;5.30;;
6862;SDS011;3470;48.738;9.616;2023-06-19T19:57:02;6.53;;;5.65;;
6862;SDS011;3470;48.738;9.616;2023-06-19T19:59:28;6.13;;;5.47;;
6862;SDS011;3470;48.738;9.616;2023-06-19T20:01:54;5.93;;;5.30;;
6862;SDS011;3470;48.738;9.616;2023-06-19T20:04:19;5.65;;;5.15;;
6862;SDS011;3470;48.738;9.616;2023-06-19T20:06:45;5.43;;;4.93;;
6862;SDS011;3470;48.738;9.616;2023-06-19T20:09:11;6.90;;;5.57;;
6862;SDS011;3470;48.738;9.616;2023-06-19T20:11:37;6.30;;;5.63;;
6862;SDS011;3470;48.738;9.616;2023-06-19T20:14:03;5.82;;;5.32;;
6862;SDS011;3470;48.738;9.616;2023-06-19T20:16:29;5.97;;;5.47;;
6862;SDS011;3470;48.738;9.616;2023-06-19T20:18:54;5.95;;;5.40;;
6862;SDS011;3470;48.738;9.616;2023-06-19T20:21:20;6.25;;;5.68;;
6862;SDS011;3470;48.738;9.616;2023-06-19T20:23:45;5.90;;;5.38;;
6862;SDS011;3470;48.738;9.616;2023-06-19T20:26:11;6.18;;;5.45;;
6862;SDS011;3470;48.738;9.616;2023-06-19T20:28:37;6.45;;;5.85;;
6862;SDS011;3470;48.738;9.616;2023-06-19T20:31:03;6.45;;;5.75;;
6862;SDS011;3470;48.738;9.616;2023-06-19T20:33:29;5.65;;;5.15;;
6862;SDS011;3470;48.738;9.616;2023-06-19T20:35:54;6.60;;;6.00;;
6862;SDS011;3470;48.738;9.616;2023-06-19T20:38:20;6.90;;;6.30;;
6862;SDS011;3470;48.738;9.616;2023-06-19T20:40:46;6.88;;;5.95;;
6862;SDS011;3470;48.738;9.616;2023-06-19T20:43:13;6.70;;;6.10;;
6862;SDS011;3470;48.738;9.616;2023-06-19T20:45:38;7.28;;;6.57;;
6862;SDS011;3470;48.738;9.616;2023-06-19T20:48:06;6.93;;;6.32;;
6862;SDS011;3470;48.738;9.616;2023-06-19T20:50:32;6.03;;;5.53;;
6862;SDS011;3470;48.738;9.616;2023-06-19T20:52:57;6.07;;;5.57;;
6862;SDS011;3470;48.738;9.616;2023-06-19T20:55:23;7.13;;;6.43;;
6862;SDS011;3470;48.738;9.616;2023-06-19T20:57:48;7.53;;;6.63;;
6862;SDS011;3470;48.738;9.616;2023-06-19T21:00:14;6.55;;;5.95;;
6862;SDS011;3470;48.738;9.616;2023-06-19T21:02:40;6.65;;;6.05;;
6862;SDS011;3470;48.738;9.616;2023-06-19T21:05:06;6.47;;;5.97;;
6862;SDS011;3470;48.738;9.616;2023-06-19T21:07:33;8.52;;;6.38;;
6862;SDS011;3470;48.738;9.616;2023-06-19T21:09:59;7.20;;;6.60;;
6862;SDS011;3470;48.738;9.616;2023-06-19T21:12:25;8.63;;;6.15;;
6862;SDS011;3470;48.738;9.616;2023-06-19T21:14:51;7.28;;;6.57;;
6862;SDS011;3470;48.738;9.616;2023-06-19T21:17:16;7.85;;;7.05;;
6862;SDS011;3470;48.738;9.616;2023-06-19T21:19:42;6.97;;;6.38;;
6862;SDS011;3470;48.738;9.616;2023-06-19T21:22:07;6.07;;;5.57;;
6862;SDS011;3470;48.738;9.616;2023-06-19T21:24:33;7.03;;;6.43;;
6862;SDS011;3470;48.738;9.616;2023-06-19T21:26:59;7.00;;;6.38;;
6862;SDS011;3470;48.738;9.616;2023-06-19T21:29:26;7.32;;;6.63;;
6862;SDS011;3470;48.738;9.616;2023-06-19T21:31:52;6.78;;;6.18;;
6862;SDS011;3470;48.738;9.616;2023-06-19T21:34:18;6.78;;;6.15;;
6862;SDS011;3470;48.738;9.616;2023-06-19T21:36:43;6.63;;;5.97;;
6862;SDS011;3470;48.738;9.616;2023-06-19T21:39:09;6.13;;;5.55;;
6862;SDS011;3470;48.738;9.616;2023-06-19T21:41:35;6.50;;;5.95;;
6862;SDS011;3470;48.738;9.616;2023-06-19T21:44:01;6.40;;;5.80;;
6862;SDS011;3470;48.738;9.616;2023-06-19T21:46:27;6.30;;;5.70;;
6862;SDS011;3470;48.738;9.616;2023-06-19T21:48:52;6.55;;;5.90;;
6862;SDS011;3470;48.738;9.616;2023-06-19T21:51:18;6.40;;;5.78;;
6862;SDS011;3470;48.738;9.616;2023-06-19T21:53:43;6.68;;;6.07;;
6862;SDS011;3470;48.738;9.616;2023-06-19T21:56:09;7.55;;;6.88;;
6862;SDS011;3470;48.738;9.616;2023-06-19T21:58:35;7.68;;;5.97;;
6862;SDS011;3470;48.738;9.616;2023-06-19T22:01:00;6.95;;;6.22;;
6862;SDS011;3470;48.738;9.616;2023-06-19T22:03:26;6.70;;;6.10;;
6862;SDS011;3470;48.738;9.616;2023-06-19T22:05:52;6.70;;;6.00;;
6862;SDS011;3470;48.738;9.616;2023-06-19T22:08:17;5.97;;;5.47;;
6862;SDS011;3470;48.738;9.616;2023-06-19T22:10:43;6.40;;;5.88;;
6862;SDS011;3470;48.738;9.616;2023-06-19T22:13:08;6.22;;;5.72;;
6862;SDS011;3470;48.738;9.616;2023-06-19T22:15:36;7.03;;;6.43;;
6862;SDS011;3470;48.738;9.616;2023-06-19T22:18:02;7.15;;;6.45;;
6862;SDS011;3470;48.738;9.616;2023-06-19T22:20:28;6.72;;;6.18;;
6862;SDS011;3470;48.738;9.616;2023-06-19T22:22:54;7.30;;;6.63;;
6862;SDS011;3470;48.738;9.616;2023-06-19T22:25:20;6.70;;;6.10;;
6862;SDS011;3470;48.738;9.616;2023-06-19T22:27:45;7.32;;;6.57;;
6862;SDS011;3470;48.738;9.616;2023-06-19T22:30:13;7.20;;;5.70;;
6862;SDS011;3470;48.738;9.616;2023-06-19T22:32:40;6.43;;;5.90;;
6862;SDS011;3470;48.738;9.616;2023-06-19T22:35:06;6.57;;;5.78;;
6862;SDS011;3470;48.738;9.616;2023-06-19T22:37:32;6.22;;;5.63;;
6862;SDS011;3470;48.738;9.616;2023-06-19T22:39:57;6.50;;;5.90;;
6862;SDS011;3470;48.738;9.616;2023-06-19T22:42:23;6.72;;;6.07;;
6862;SDS011;3470;48.738;9.616;2023-06-19T22:44:49;6.43;;;5.82;;
6862;SDS011;3470;48.738;9.616;2023-06-19T22:47:14;6.68;;;5.82;;
6862;SDS011;3470;48.738;9.616;2023-06-19T22:49:40;6.43;;;5.82;;
6862;SDS011;3470;48.738;9.616;2023-06-19T22:52:07;6.38;;;5.78;;
6862;SDS011;3470;48.738;9.616;2023-06-19T22:54:32;7.63;;;6.18;;
6862;SDS011;3470;48.738;9.616;2023-06-19T22:56:58;7.35;;;6.75;;
6862;SDS011;3470;48.738;9.616;2023-06-19T22:59:24;6.80;;;6.10;;
6862;SDS011;3470;48.738;9.616;2023-06-19T23:01:50;7.90;;;5.97;;
6862;SDS011;3470;48.738;9.616;2023-06-19T23:04:15;6.97;;;6.32;;
6862;SDS011;3470;48.738;9.616;2023-06-19T23:06:45;6.82;;;6.13;;
6862;SDS011;3470;48.738;9.616;2023-06-19T23:09:16;6.93;;;6.32;;
6862;SDS011;3470;48.738;9.616;2023-06-19T23:11:42;6.40;;;5.90;;
6862;SDS011;3470;48.738;9.616;2023-06-19T23:14:08;7.60;;;7.00;;
6862;SDS011;3470;48.738;9.616;2023-06-19T23:16:34;7.10;;;6.40;;
6862;SDS011;3470;48.738;9.616;2023-06-19T23:19:01;6.55;;;5.82;;
6862;SDS011;3470;48.738;9.616;2023-06-19T23:21:27;7.22;;;6.53;;
6862;SDS011;3470;48.738;9.616;2023-06-19T23:23:56;7.80;;;5.85;;
6862;SDS011;3470;48.738;9.616;2023-06-19T23:26:22;7.38;;;6.68;;
6862;SDS011;3470;48.738;9.616;2023-06-19T23:28:50;6.70;;;6.05;;
6862;SDS011;3470;48.738;9.616;2023-06-19T23:31:17;7.85;;;6.65;;
6862;SDS011;3470;48.738;9.616;2023-06-19T23:33:51;7.10;;;6.40;;
6862;SDS011;3470;48.738;9.616;2023-06-19T23:36:19;7.18;;;6.60;;
6862;SDS011;3470;48.738;9.616;2023-06-19T23:38:45;7.03;;;6.38;;
6862;SDS011;3470;48.738;9.616;2023-06-19T23:41:13;8.25;;;6.72;;
6862;SDS011;3470;48.738;9.616;2023-06-19T23:43:39;6.70;;;6.10;;
6862;SDS011;3470;48.738;9.616;2023-06-19T23:46:05;6.68;;;6.07;;
6862;SDS011;3470;48.738;9.616;2023-06-19T23:48:31;7.20;;;6.50;;
6862;SDS011;3470;48.738;9.616;2023-06-19T23:50:57;7.20;;;6.57;;
6862;SDS011;3470;48.738;9.616;2023-06-19T23:53:22;6.93;;;6.32;;
6862;SDS011;3470;48.738;9.616;2023-06-19T23:55:48;6.60;;;6.00;;
6862;SDS011;3470;48.738;9.616;2023-06-19T23:58:13;6.53;;;5.93;;
